createdAt,value
2022-07-25T00:00:04.099Z,2.80
2022-07-25T00:00:17.343Z,2.67
2022-07-25T00:00:30.841Z,2.60
2022-07-25T00:00:44.558Z,2.70
2022-07-25T00:00:57.414Z,2.70
2022-07-25T00:01:13.328Z,2.80
2022-07-25T00:01:26.904Z,2.70
2022-07-25T00:01:43.396Z,2.60
2022-07-25T00:01:56.861Z,2.70
2022-07-25T00:02:10.552Z,2.72
2022-07-25T00:02:23.530Z,2.70
2022-07-25T00:02:36.473Z,2.70
2022-07-25T00:02:49.558Z,2.70
2022-07-25T00:03:02.771Z,2.70
2022-07-25T00:03:18.523Z,2.70
2022-07-25T00:03:32.331Z,2.70
2022-07-25T00:03:45.169Z,2.65
2022-07-25T00:03:58.063Z,2.67
2022-07-25T00:04:12.179Z,2.60
2022-07-25T00:04:25.847Z,2.45
2022-07-25T00:04:38.894Z,2.50
2022-07-25T00:04:52.078Z,2.62
2022-07-25T00:05:09.323Z,2.70
2022-07-25T00:05:22.244Z,2.72
2022-07-25T00:05:39.054Z,2.70
2022-07-25T00:05:52.029Z,2.50
2022-07-25T00:06:05.179Z,2.70
2022-07-25T00:06:18.231Z,2.80
2022-07-25T00:06:31.178Z,2.78
2022-07-25T00:06:45.054Z,2.83
2022-07-25T00:06:58.055Z,2.70
2022-07-25T00:07:12.020Z,2.70
2022-07-25T00:07:24.863Z,2.78
2022-07-25T00:07:37.773Z,2.70
2022-07-25T00:07:50.798Z,2.67
2022-07-25T00:08:03.828Z,2.60
2022-07-25T00:08:16.886Z,2.65
2022-07-25T00:08:29.725Z,2.70
2022-07-25T00:08:44.538Z,2.70
2022-07-25T00:08:57.380Z,2.60
2022-07-25T00:09:10.503Z,2.58
2022-07-25T00:09:23.561Z,3.00
2022-07-25T00:09:36.568Z,2.95
2022-07-25T00:09:54.445Z,2.60
2022-07-25T00:10:07.999Z,2.80
2022-07-25T00:10:20.902Z,2.78
2022-07-25T00:10:33.943Z,2.75
2022-07-25T00:10:47.383Z,2.60
2022-07-25T00:11:00.283Z,2.80
2022-07-25T00:11:13.285Z,3.03
2022-07-25T00:11:26.147Z,3.00
2022-07-25T00:11:38.999Z,2.87
2022-07-25T00:11:51.894Z,2.90
2022-07-25T00:12:04.866Z,2.75
2022-07-25T00:12:19.281Z,2.67
2022-07-25T00:12:32.610Z,2.60
2022-07-25T00:12:45.554Z,2.70
2022-07-25T00:13:00.287Z,2.75
2022-07-25T00:13:13.604Z,2.87
2022-07-25T00:13:26.467Z,2.90
2022-07-25T00:13:39.340Z,2.65
2022-07-25T00:13:52.676Z,2.62
2022-07-25T00:14:06.059Z,2.65
2022-07-25T00:14:19.196Z,2.60
2022-07-25T00:14:32.104Z,2.60
2022-07-25T00:14:45.442Z,2.70
2022-07-25T00:14:59.271Z,2.70
2022-07-25T00:15:12.169Z,2.78
2022-07-25T00:15:25.135Z,2.80
2022-07-25T00:15:38.094Z,2.80
2022-07-25T00:15:51.093Z,2.80
2022-07-25T00:16:04.427Z,2.67
2022-07-25T00:16:17.360Z,2.60
2022-07-25T00:16:30.327Z,2.65
2022-07-25T00:16:43.725Z,2.75
2022-07-25T00:17:01.733Z,2.90
2022-07-25T00:17:14.808Z,2.80
2022-07-25T00:17:27.677Z,2.70
2022-07-25T00:17:40.807Z,2.80
2022-07-25T00:17:53.783Z,2.80
2022-07-25T00:18:16.252Z,2.75
2022-07-25T00:18:29.650Z,2.83
2022-07-25T00:18:42.770Z,2.70
2022-07-25T00:18:55.702Z,2.60
2022-07-25T00:19:08.999Z,2.62
2022-07-25T00:19:22.016Z,2.83
2022-07-25T00:19:34.947Z,2.85
2022-07-25T00:19:47.918Z,2.72
2022-07-25T00:20:01.224Z,2.90
2022-07-25T00:20:14.351Z,3.10
2022-07-25T00:20:27.484Z,3.00
2022-07-25T00:20:40.511Z,2.72
2022-07-25T00:20:53.522Z,2.70
2022-07-25T00:21:06.450Z,2.75
2022-07-25T00:21:19.314Z,2.75
2022-07-25T00:21:32.746Z,2.60
2022-07-25T00:21:45.703Z,2.60
2022-07-25T00:21:58.785Z,2.70
2022-07-25T00:22:11.678Z,2.70
2022-07-25T00:22:24.570Z,2.67
2022-07-25T00:22:37.917Z,2.55
2022-07-25T00:22:50.789Z,2.62
2022-07-25T00:23:03.635Z,2.80
2022-07-25T00:23:16.429Z,2.80
2022-07-25T00:23:29.393Z,2.67
2022-07-25T00:23:42.336Z,2.50
2022-07-25T00:23:55.212Z,2.40
2022-07-25T00:24:08.701Z,2.40
2022-07-25T00:24:22.125Z,2.60
2022-07-25T00:24:35.302Z,2.78
2022-07-25T00:24:48.288Z,2.72
2022-07-25T00:25:01.292Z,2.70
2022-07-25T00:25:14.497Z,2.70
2022-07-25T00:25:27.541Z,2.90
2022-07-25T00:25:40.424Z,2.80
2022-07-25T00:25:53.274Z,2.70
2022-07-25T00:26:06.227Z,2.75
2022-07-25T00:26:23.104Z,2.78
2022-07-25T00:26:39.972Z,2.70
2022-07-25T00:26:53.325Z,2.67
2022-07-25T00:27:06.153Z,2.70
2022-07-25T00:27:22.914Z,2.50
2022-07-25T00:27:35.779Z,2.58
2022-07-25T00:27:49.017Z,2.67
2022-07-25T00:28:01.877Z,2.78
2022-07-25T00:28:14.787Z,2.92
2022-07-25T00:28:27.643Z,3.00
2022-07-25T00:28:40.676Z,3.05
2022-07-25T00:28:53.556Z,2.87
2022-07-25T00:29:06.597Z,2.60
2022-07-25T00:29:19.688Z,2.55
2022-07-25T00:29:32.758Z,2.55
2022-07-25T00:29:45.671Z,2.67
2022-07-25T00:29:58.551Z,2.87
2022-07-25T00:30:11.662Z,2.80
2022-07-25T00:30:24.544Z,2.65
2022-07-25T00:30:37.465Z,2.50
2022-07-25T00:30:50.485Z,2.60
2022-07-25T00:31:03.517Z,2.60
2022-07-25T00:31:16.536Z,2.50
2022-07-25T00:31:29.525Z,2.40
2022-07-25T00:31:42.463Z,2.50
2022-07-25T00:31:55.355Z,2.70
2022-07-25T00:32:08.394Z,2.75
2022-07-25T00:32:21.349Z,2.75
2022-07-25T00:32:35.373Z,2.70
2022-07-25T00:32:48.427Z,2.83
2022-07-25T00:33:01.311Z,2.80
2022-07-25T00:33:14.358Z,2.62
2022-07-25T00:33:27.273Z,2.55
2022-07-25T00:33:40.480Z,2.80
2022-07-25T00:33:53.478Z,2.72
2022-07-25T00:34:07.205Z,2.87
2022-07-25T00:34:20.389Z,2.80
2022-07-25T00:34:33.408Z,2.70
2022-07-25T00:34:46.262Z,2.58
2022-07-25T00:34:59.114Z,2.60
2022-07-25T00:35:12.117Z,2.62
2022-07-25T00:35:25.121Z,2.65
2022-07-25T00:35:37.960Z,2.70
2022-07-25T00:35:50.841Z,2.70
2022-07-25T00:36:03.906Z,2.80
2022-07-25T00:36:17.845Z,2.70
2022-07-25T00:36:30.688Z,2.58
2022-07-25T00:36:43.662Z,2.60
2022-07-25T00:36:56.495Z,2.60
2022-07-25T00:37:09.503Z,2.53
2022-07-25T00:37:22.372Z,2.50
2022-07-25T00:37:35.272Z,2.60
2022-07-25T00:37:48.123Z,2.50
2022-07-25T00:38:01.079Z,2.75
2022-07-25T00:38:13.971Z,2.90
2022-07-25T00:38:26.845Z,3.00
2022-07-25T00:38:39.742Z,2.87
2022-07-25T00:38:52.581Z,2.80
2022-07-25T00:39:05.595Z,2.90
2022-07-25T00:39:18.464Z,3.00
2022-07-25T00:39:31.330Z,2.87
2022-07-25T00:39:44.333Z,2.70
2022-07-25T00:39:57.176Z,2.70
2022-07-25T00:40:10.799Z,2.67
2022-07-25T00:40:23.705Z,2.60
2022-07-25T00:40:37.108Z,2.70
2022-07-25T00:40:54.554Z,2.87
2022-07-25T00:41:08.624Z,2.65
2022-07-25T00:41:21.931Z,2.45
2022-07-25T00:41:35.614Z,2.50
2022-07-25T00:41:48.456Z,2.62
2022-07-25T00:42:02.345Z,2.70
2022-07-25T00:42:15.855Z,2.60
2022-07-25T00:42:28.768Z,2.60
2022-07-25T00:42:41.696Z,2.60
2022-07-25T00:42:55.067Z,2.80
2022-07-25T00:43:08.073Z,2.80
2022-07-25T00:43:20.954Z,2.55
2022-07-25T00:43:33.823Z,2.40
2022-07-25T00:43:46.934Z,2.53
2022-07-25T00:43:59.984Z,2.75
2022-07-25T00:44:31.492Z,2.70
2022-07-25T00:44:44.342Z,2.60
2022-07-25T00:44:57.235Z,2.78
2022-07-25T00:45:10.996Z,2.90
2022-07-25T00:45:23.876Z,2.80
2022-07-25T00:45:36.740Z,2.75
2022-07-25T00:45:49.591Z,2.67
2022-07-25T00:46:02.480Z,2.58
2022-07-25T00:46:18.799Z,2.50
2022-07-25T00:46:32.151Z,2.60
2022-07-25T00:46:45.305Z,2.70
2022-07-25T00:46:58.703Z,2.70
2022-07-25T00:47:11.789Z,2.60
2022-07-25T00:47:24.735Z,2.50
2022-07-25T00:47:37.808Z,2.60
2022-07-25T00:48:09.198Z,2.70
2022-07-25T00:48:22.318Z,2.67
2022-07-25T00:48:35.568Z,2.70
2022-07-25T00:48:48.527Z,2.70
2022-07-25T00:49:01.687Z,2.40
2022-07-25T00:49:14.669Z,2.22
2022-07-25T00:49:27.656Z,2.35
2022-07-25T00:49:40.563Z,2.50
2022-07-25T00:49:53.647Z,2.53
2022-07-25T00:50:07.037Z,2.53
2022-07-25T00:50:20.904Z,2.40
2022-07-25T00:50:33.811Z,2.40
2022-07-25T00:50:46.703Z,2.65
2022-07-25T00:50:59.776Z,2.65
2022-07-25T00:51:12.662Z,2.72
2022-07-25T00:51:25.494Z,2.70
2022-07-25T00:51:38.391Z,2.70
2022-07-25T00:51:51.827Z,2.70
2022-07-25T00:52:05.106Z,2.62
2022-07-25T00:52:18.129Z,2.55
2022-07-25T00:52:31.121Z,2.50
2022-07-25T00:52:44.882Z,2.60
2022-07-25T00:52:57.878Z,2.60
2022-07-25T00:53:11.465Z,2.70
2022-07-25T00:53:24.599Z,2.72
2022-07-25T00:53:37.990Z,2.60
2022-07-25T00:53:50.904Z,2.58
2022-07-25T00:54:04.021Z,2.60
2022-07-25T00:54:17.353Z,2.75
2022-07-25T00:54:30.271Z,2.83
2022-07-25T00:54:43.198Z,2.70
2022-07-25T00:54:58.051Z,2.62
2022-07-25T00:55:11.679Z,2.53
2022-07-25T00:55:25.235Z,2.58
2022-07-25T00:55:38.268Z,2.53
2022-07-25T00:55:51.984Z,2.62
2022-07-25T00:56:05.834Z,2.60
2022-07-25T00:56:18.710Z,2.60
2022-07-25T00:56:31.645Z,2.70
2022-07-25T00:56:44.554Z,2.60
2022-07-25T00:56:57.445Z,2.40
2022-07-25T00:57:10.303Z,2.40
2022-07-25T00:57:23.367Z,2.55
2022-07-25T00:57:36.285Z,2.67
2022-07-25T00:57:49.157Z,2.60
2022-07-25T00:58:02.317Z,2.55
2022-07-25T00:58:15.434Z,2.53
2022-07-25T00:58:29.718Z,2.60
2022-07-25T00:58:43.207Z,2.65
2022-07-25T00:58:57.104Z,2.70
2022-07-25T00:59:10.099Z,2.70
2022-07-25T00:59:23.139Z,2.60
2022-07-25T00:59:36.115Z,2.60
2022-07-25T00:59:49.048Z,2.50
2022-07-25T01:00:02.468Z,2.50
2022-07-25T01:00:15.855Z,2.42
2022-07-25T01:00:28.909Z,2.35
2022-07-25T01:00:43.168Z,2.60
2022-07-25T01:00:56.122Z,2.80
2022-07-25T01:01:09.021Z,2.70
2022-07-25T01:01:22.007Z,2.70
2022-07-25T01:01:35.561Z,2.72
2022-07-25T01:01:48.686Z,2.80
2022-07-25T01:02:03.782Z,2.60
2022-07-25T01:02:17.226Z,2.58
2022-07-25T01:02:30.297Z,2.60
2022-07-25T01:02:43.264Z,2.50
2022-07-25T01:02:56.477Z,2.47
2022-07-25T01:03:09.827Z,2.50
2022-07-25T01:03:22.738Z,2.45
2022-07-25T01:03:35.634Z,2.37
2022-07-25T01:03:48.833Z,2.40
2022-07-25T01:04:02.171Z,2.60
2022-07-25T01:04:15.773Z,2.55
2022-07-25T01:04:28.655Z,2.60
2022-07-25T01:04:41.700Z,2.70
2022-07-25T01:04:55.067Z,2.50
2022-07-25T01:05:08.599Z,2.40
2022-07-25T01:05:23.777Z,2.50
2022-07-25T01:05:36.866Z,2.50
2022-07-25T01:05:53.699Z,2.70
2022-07-25T01:06:07.134Z,2.50
2022-07-25T01:06:20.213Z,2.40
2022-07-25T01:06:37.680Z,2.53
2022-07-25T01:06:50.579Z,2.62
2022-07-25T01:07:03.453Z,2.80
2022-07-25T01:07:16.328Z,2.70
2022-07-25T01:07:29.235Z,2.60
2022-07-25T01:07:42.158Z,2.80
2022-07-25T01:07:55.020Z,2.78
2022-07-25T01:08:08.036Z,2.60
2022-07-25T01:08:21.265Z,2.65
2022-07-25T01:08:34.715Z,2.58
2022-07-25T01:08:47.725Z,2.53
2022-07-25T01:09:01.149Z,2.65
2022-07-25T01:09:14.180Z,2.60
2022-07-25T01:09:27.332Z,2.65
2022-07-25T01:09:42.579Z,2.45
2022-07-25T01:09:55.531Z,2.47
2022-07-25T01:10:08.855Z,2.60
2022-07-25T01:10:21.861Z,2.55
2022-07-25T01:10:35.117Z,2.40
2022-07-25T01:10:57.047Z,2.70
2022-07-25T01:11:10.124Z,2.70
2022-07-25T01:11:23.099Z,2.70
2022-07-25T01:11:35.963Z,2.65
2022-07-25T01:11:48.840Z,2.55
2022-07-25T01:12:01.819Z,2.50
2022-07-25T01:12:14.793Z,2.58
2022-07-25T01:12:27.686Z,2.72
2022-07-25T01:12:53.685Z,2.78
2022-07-25T01:13:06.659Z,2.78
2022-07-25T01:13:19.542Z,2.90
2022-07-25T01:13:34.625Z,2.72
2022-07-25T01:13:47.497Z,2.60
2022-07-25T01:14:00.431Z,2.50
2022-07-25T01:14:13.347Z,2.45
2022-07-25T01:14:26.217Z,2.58
2022-07-25T01:14:39.446Z,2.75
2022-07-25T01:14:52.454Z,2.70
2022-07-25T01:15:05.754Z,2.47
2022-07-25T01:15:19.918Z,2.60
2022-07-25T01:15:33.113Z,2.60
2022-07-25T01:15:46.077Z,2.50
2022-07-25T01:15:59.024Z,2.47
2022-07-25T01:16:14.071Z,2.40
2022-07-25T01:16:27.170Z,2.60
2022-07-25T01:16:41.341Z,2.80
2022-07-25T01:16:54.202Z,2.70
2022-07-25T01:17:09.361Z,2.72
2022-07-25T01:17:22.385Z,2.80
2022-07-25T01:17:35.225Z,2.65
2022-07-25T01:17:48.317Z,2.53
2022-07-25T01:18:01.206Z,2.50
2022-07-25T01:18:15.134Z,2.37
2022-07-25T01:18:28.016Z,2.40
2022-07-25T01:18:40.986Z,2.45
2022-07-25T01:18:53.833Z,2.50
2022-07-25T01:19:06.991Z,2.70
2022-07-25T01:19:20.076Z,2.58
2022-07-25T01:19:32.944Z,2.42
2022-07-25T01:19:47.234Z,2.55
2022-07-25T01:20:02.033Z,2.80
2022-07-25T01:20:21.280Z,2.60
2022-07-25T01:20:34.232Z,2.40
2022-07-25T01:20:47.221Z,2.50
2022-07-25T01:21:00.772Z,2.62
2022-07-25T01:21:14.567Z,2.78
2022-07-25T01:21:27.489Z,2.70
2022-07-25T01:21:41.428Z,2.47
2022-07-25T01:21:56.357Z,2.40
2022-07-25T01:22:09.208Z,2.50
2022-07-25T01:22:22.100Z,2.35
2022-07-25T01:22:35.075Z,2.50
2022-07-25T01:22:48.213Z,2.72
2022-07-25T01:23:01.524Z,2.72
2022-07-25T01:23:14.478Z,2.60
2022-07-25T01:23:27.882Z,2.58
2022-07-25T01:23:41.440Z,2.70
2022-07-25T01:23:54.351Z,2.70
2022-07-25T01:24:12.475Z,2.60
2022-07-25T01:24:25.407Z,2.62
2022-07-25T01:24:39.244Z,2.55
2022-07-25T01:24:52.175Z,2.50
2022-07-25T01:25:05.411Z,2.60
2022-07-25T01:25:20.235Z,2.70
2022-07-25T01:25:33.090Z,2.65
2022-07-25T01:25:46.085Z,2.67
2022-07-25T01:25:59.098Z,2.55
2022-07-25T01:26:13.267Z,2.58
2022-07-25T01:26:26.293Z,2.70
2022-07-25T01:26:39.249Z,2.80
2022-07-25T01:26:52.143Z,2.58
2022-07-25T01:27:05.081Z,2.70
2022-07-25T01:27:17.944Z,2.62
2022-07-25T01:27:31.743Z,2.55
2022-07-25T01:27:44.620Z,2.55
2022-07-25T01:27:58.250Z,2.60
2022-07-25T01:28:11.105Z,2.45
2022-07-25T01:28:24.190Z,2.50
2022-07-25T01:28:37.206Z,2.70
2022-07-25T01:28:50.305Z,2.62
2022-07-25T01:29:03.351Z,2.50
2022-07-25T01:29:16.372Z,2.60
2022-07-25T01:29:29.379Z,2.72
2022-07-25T01:29:42.246Z,2.80
2022-07-25T01:29:55.638Z,2.70
2022-07-25T01:30:10.217Z,2.60
2022-07-25T01:30:23.489Z,2.70
2022-07-25T01:30:36.594Z,2.70
2022-07-25T01:30:49.576Z,2.83
2022-07-25T01:31:02.668Z,2.90
2022-07-25T01:31:16.128Z,2.87
2022-07-25T01:31:29.290Z,2.70
2022-07-25T01:31:42.355Z,2.60
2022-07-25T01:31:56.171Z,2.60
2022-07-25T01:32:09.151Z,2.50
2022-07-25T01:32:22.218Z,2.58
2022-07-25T01:32:40.052Z,2.70
2022-07-25T01:32:53.031Z,2.70
2022-07-25T01:33:07.022Z,2.70
2022-07-25T01:33:21.009Z,2.50
2022-07-25T01:33:33.885Z,2.33
2022-07-25T01:33:46.826Z,2.40
2022-07-25T01:33:59.707Z,2.60
2022-07-25T01:34:13.089Z,2.62
2022-07-25T01:34:26.133Z,2.58
2022-07-25T01:34:39.072Z,2.50
2022-07-25T01:34:51.983Z,2.70
2022-07-25T01:35:05.827Z,2.70
2022-07-25T01:35:18.926Z,2.70
2022-07-25T01:35:31.819Z,2.50
2022-07-25T01:35:45.087Z,2.30
2022-07-25T01:35:58.040Z,2.50
2022-07-25T01:36:11.144Z,2.60
2022-07-25T01:36:24.078Z,2.60
2022-07-25T01:36:36.951Z,2.60
2022-07-25T01:36:49.788Z,2.40
2022-07-25T01:37:03.631Z,2.37
2022-07-25T01:37:16.533Z,2.58
2022-07-25T01:37:31.436Z,2.67
2022-07-25T01:37:46.066Z,2.70
2022-07-25T01:37:59.387Z,2.78
2022-07-25T01:38:12.408Z,2.80
2022-07-25T01:38:25.317Z,2.70
2022-07-25T01:38:38.415Z,2.62
2022-07-25T01:38:55.367Z,2.60
2022-07-25T01:39:08.366Z,2.60
2022-07-25T01:39:21.679Z,2.67
2022-07-25T01:39:34.817Z,2.70
2022-07-25T01:39:47.907Z,2.78
2022-07-25T01:40:00.827Z,2.72
2022-07-25T01:40:14.345Z,2.60
2022-07-25T01:40:27.365Z,2.60
2022-07-25T01:40:40.320Z,2.60
2022-07-25T01:40:53.243Z,2.60
2022-07-25T01:41:06.372Z,2.70
2022-07-25T01:41:22.673Z,2.78
2022-07-25T01:41:35.875Z,2.60
2022-07-25T01:41:48.779Z,2.60
2022-07-25T01:42:04.164Z,2.70
2022-07-25T01:42:17.279Z,2.65
2022-07-25T01:42:30.130Z,2.50
2022-07-25T01:42:44.331Z,2.50
2022-07-25T01:42:57.318Z,2.40
2022-07-25T01:43:10.681Z,2.55
2022-07-25T01:43:23.743Z,2.50
2022-07-25T01:43:37.003Z,2.47
2022-07-25T01:43:50.130Z,2.65
2022-07-25T01:44:07.303Z,2.80
2022-07-25T01:44:20.455Z,2.80
2022-07-25T01:44:33.314Z,2.70
2022-07-25T01:44:46.349Z,2.60
2022-07-25T01:44:59.469Z,2.55
2022-07-25T01:45:12.495Z,2.70
2022-07-25T01:45:25.470Z,2.60
2022-07-25T01:45:38.366Z,2.53
2022-07-25T01:45:51.305Z,2.55
2022-07-25T01:46:04.350Z,2.83
2022-07-25T01:46:17.737Z,2.80
2022-07-25T01:46:31.658Z,2.65
2022-07-25T01:46:44.648Z,2.47
2022-07-25T01:46:57.977Z,2.50
2022-07-25T01:47:10.822Z,2.55
2022-07-25T01:47:23.873Z,2.50
2022-07-25T01:47:37.128Z,2.50
2022-07-25T01:47:50.053Z,2.58
2022-07-25T01:48:03.130Z,2.60
2022-07-25T01:48:16.025Z,2.60
2022-07-25T01:48:30.286Z,2.53
2022-07-25T01:48:43.394Z,2.53
2022-07-25T01:48:56.517Z,2.67
2022-07-25T01:49:09.595Z,2.67
2022-07-25T01:49:22.523Z,2.70
2022-07-25T01:49:35.534Z,2.65
2022-07-25T01:49:48.418Z,2.65
2022-07-25T01:50:01.552Z,2.50
2022-07-25T01:50:14.556Z,2.50
2022-07-25T01:50:27.908Z,2.60
2022-07-25T01:50:40.769Z,2.50
2022-07-25T01:50:53.725Z,2.42
2022-07-25T01:51:08.211Z,2.55
2022-07-25T01:51:24.091Z,2.60
2022-07-25T01:51:39.412Z,2.70
2022-07-25T01:51:53.007Z,2.80
2022-07-25T01:52:06.254Z,2.75
2022-07-25T01:52:19.267Z,2.70
2022-07-25T01:52:32.154Z,2.78
2022-07-25T01:52:45.051Z,2.70
2022-07-25T01:52:57.920Z,2.60
2022-07-25T01:53:10.779Z,2.58
2022-07-25T01:53:23.694Z,2.65
2022-07-25T01:53:37.682Z,2.70
2022-07-25T01:53:51.330Z,2.72
2022-07-25T01:54:04.651Z,2.70
2022-07-25T01:54:22.509Z,2.75
2022-07-25T01:54:35.557Z,2.80
2022-07-25T01:54:52.845Z,2.80
2022-07-25T01:55:06.689Z,2.65
2022-07-25T01:55:20.192Z,2.58
2022-07-25T01:55:33.286Z,2.53
2022-07-25T01:55:50.005Z,2.50
2022-07-25T01:56:08.404Z,2.30
2022-07-25T01:56:23.044Z,2.30
2022-07-25T01:56:36.730Z,2.60
2022-07-25T01:56:49.643Z,2.60
2022-07-25T01:57:02.524Z,2.67
2022-07-25T01:57:15.405Z,2.70
2022-07-25T01:57:30.672Z,2.70
2022-07-25T01:57:49.426Z,2.60
2022-07-25T01:58:03.432Z,2.70
2022-07-25T01:58:16.279Z,2.55
2022-07-25T01:58:30.517Z,2.55
2022-07-25T01:58:43.574Z,2.53
2022-07-25T01:58:56.472Z,2.60
2022-07-25T01:59:09.378Z,2.53
2022-07-25T01:59:22.267Z,2.67
2022-07-25T01:59:39.251Z,2.65
2022-07-25T01:59:52.109Z,2.40
2022-07-25T02:00:06.307Z,2.58
2022-07-25T02:00:19.318Z,2.60
2022-07-25T02:00:36.370Z,2.40
2022-07-25T02:00:57.970Z,2.60
2022-07-25T02:01:10.909Z,2.67
2022-07-25T02:01:23.937Z,2.50
2022-07-25T02:01:37.236Z,2.40
2022-07-25T02:01:51.272Z,2.60
2022-07-25T02:02:04.479Z,2.70
2022-07-25T02:02:17.404Z,2.60
2022-07-25T02:02:30.753Z,2.60
2022-07-25T02:02:43.991Z,2.62
2022-07-25T02:03:15.247Z,2.70
2022-07-25T02:03:32.809Z,2.50
2022-07-25T02:03:45.865Z,2.62
2022-07-25T02:03:59.165Z,2.70
2022-07-25T02:04:12.410Z,2.47
2022-07-25T02:04:25.481Z,2.40
2022-07-25T02:04:38.495Z,2.40
2022-07-25T02:04:51.557Z,2.40
2022-07-25T02:05:04.796Z,2.50
2022-07-25T02:05:17.708Z,2.60
2022-07-25T02:05:30.588Z,2.67
2022-07-25T02:05:43.454Z,2.55
2022-07-25T02:05:57.592Z,2.50
2022-07-25T02:06:10.476Z,2.67
2022-07-25T02:06:23.375Z,2.80
2022-07-25T02:06:36.309Z,2.65
2022-07-25T02:06:49.664Z,2.60
2022-07-25T02:07:02.690Z,2.75
2022-07-25T02:07:15.562Z,2.70
2022-07-25T02:07:28.439Z,2.72
2022-07-25T02:07:41.341Z,2.60
2022-07-25T02:07:54.244Z,2.47
2022-07-25T02:08:07.169Z,2.50
2022-07-25T02:08:23.281Z,2.70
2022-07-25T02:08:36.166Z,2.80
2022-07-25T02:08:49.076Z,2.78
2022-07-25T02:09:03.702Z,2.67
2022-07-25T02:09:16.581Z,2.53
2022-07-25T02:09:29.520Z,2.60
2022-07-25T02:09:42.523Z,2.65
2022-07-25T02:09:57.013Z,2.70
2022-07-25T02:10:10.123Z,2.78
2022-07-25T02:10:22.999Z,2.70
2022-07-25T02:10:36.004Z,2.58
2022-07-25T02:10:50.147Z,2.60
2022-07-25T02:11:03.076Z,2.72
2022-07-25T02:11:16.094Z,2.70
2022-07-25T02:11:29.357Z,2.70
2022-07-25T02:11:42.367Z,2.67
2022-07-25T02:11:55.261Z,2.50
2022-07-25T02:12:08.493Z,2.45
2022-07-25T02:12:21.469Z,2.78
2022-07-25T02:12:34.533Z,2.67
2022-07-25T02:12:52.322Z,2.50
2022-07-25T02:13:05.660Z,2.60
2022-07-25T02:13:19.386Z,2.62
2022-07-25T02:13:32.295Z,2.40
2022-07-25T02:13:45.177Z,2.58
2022-07-25T02:13:58.216Z,2.72
2022-07-25T02:14:11.095Z,2.70
2022-07-25T02:14:24.946Z,2.60
2022-07-25T02:14:37.897Z,2.60
2022-07-25T02:14:50.775Z,2.50
2022-07-25T02:15:03.818Z,2.53
2022-07-25T02:15:16.901Z,2.45
2022-07-25T02:15:29.771Z,2.40
2022-07-25T02:15:42.804Z,2.53
2022-07-25T02:15:56.060Z,2.60
2022-07-25T02:16:08.929Z,2.53
2022-07-25T02:16:28.871Z,2.40
2022-07-25T02:16:42.401Z,2.50
2022-07-25T02:16:55.369Z,2.60
2022-07-25T02:17:08.462Z,2.60
2022-07-25T02:17:21.701Z,2.58
2022-07-25T02:17:50.370Z,2.60
2022-07-25T02:18:03.378Z,2.50
2022-07-25T02:18:16.258Z,2.50
2022-07-25T02:18:30.042Z,2.50
2022-07-25T02:18:44.006Z,2.60
2022-07-25T02:18:57.021Z,2.60
2022-07-25T02:19:09.906Z,2.62
2022-07-25T02:19:22.858Z,2.50
2022-07-25T02:19:36.354Z,2.60
2022-07-25T02:19:49.258Z,2.60
2022-07-25T02:20:02.304Z,2.62
2022-07-25T02:20:15.471Z,2.60
2022-07-25T02:20:28.327Z,2.58
2022-07-25T02:20:41.693Z,2.70
2022-07-25T02:20:54.555Z,2.70
2022-07-25T02:21:14.398Z,2.60
2022-07-25T02:21:27.670Z,2.62
2022-07-25T02:21:40.545Z,2.55
2022-07-25T02:21:53.503Z,2.60
2022-07-25T02:22:06.738Z,2.60
2022-07-25T02:22:19.992Z,2.65
2022-07-25T02:22:32.877Z,2.67
2022-07-25T02:22:54.195Z,2.50
2022-07-25T02:23:07.099Z,2.60
2022-07-25T02:23:20.177Z,2.50
2022-07-25T02:23:33.657Z,2.50
2022-07-25T02:23:46.748Z,2.58
2022-07-25T02:23:59.687Z,2.60
2022-07-25T02:24:12.723Z,2.80
2022-07-25T02:24:25.802Z,2.70
2022-07-25T02:24:38.741Z,2.60
2022-07-25T02:24:51.662Z,2.70
2022-07-25T02:25:04.922Z,2.50
2022-07-25T02:25:18.301Z,2.30
2022-07-25T02:25:31.306Z,2.40
2022-07-25T02:25:45.247Z,2.42
2022-07-25T02:25:58.085Z,2.40
2022-07-25T02:26:12.090Z,2.50
2022-07-25T02:26:25.005Z,2.58
2022-07-25T02:26:38.015Z,2.53
2022-07-25T02:26:50.976Z,2.60
2022-07-25T02:27:04.941Z,2.60
2022-07-25T02:27:17.778Z,2.60
2022-07-25T02:27:30.700Z,2.40
2022-07-25T02:27:43.554Z,2.40
2022-07-25T02:27:56.946Z,2.47
2022-07-25T02:28:10.772Z,2.40
2022-07-25T02:28:23.942Z,2.50
2022-07-25T02:28:36.889Z,2.40
2022-07-25T02:28:50.134Z,2.58
2022-07-25T02:29:03.453Z,2.65
2022-07-25T02:29:16.383Z,2.50
2022-07-25T02:29:29.414Z,2.53
2022-07-25T02:29:48.169Z,2.62
2022-07-25T02:30:01.017Z,2.72
2022-07-25T02:30:13.966Z,2.80
2022-07-25T02:30:27.878Z,2.70
2022-07-25T02:30:41.114Z,2.60
2022-07-25T02:30:54.315Z,2.47
2022-07-25T02:31:07.651Z,2.40
2022-07-25T02:31:20.634Z,2.40
2022-07-25T02:31:33.560Z,2.53
2022-07-25T02:31:46.442Z,2.55
2022-07-25T02:32:01.666Z,2.58
2022-07-25T02:32:14.513Z,2.50
2022-07-25T02:32:27.407Z,2.50
2022-07-25T02:32:40.268Z,2.60
2022-07-25T02:32:53.264Z,2.50
2022-07-25T02:33:06.170Z,2.47
2022-07-25T02:33:19.064Z,2.50
2022-07-25T02:33:31.926Z,2.62
2022-07-25T02:33:44.901Z,2.60
2022-07-25T02:33:57.854Z,2.72
2022-07-25T02:34:10.721Z,2.60
2022-07-25T02:34:23.782Z,2.60
2022-07-25T02:34:37.759Z,2.60
2022-07-25T02:34:50.663Z,2.60
2022-07-25T02:35:05.412Z,2.47
2022-07-25T02:35:26.432Z,2.60
2022-07-25T02:35:39.333Z,2.65
2022-07-25T02:35:52.245Z,2.55
2022-07-25T02:36:05.257Z,2.40
2022-07-25T02:36:18.107Z,2.45
2022-07-25T02:36:35.241Z,2.50
2022-07-25T02:36:48.337Z,2.50
2022-07-25T02:37:01.205Z,2.40
2022-07-25T02:37:14.111Z,2.58
2022-07-25T02:37:27.125Z,2.60
2022-07-25T02:37:40.124Z,2.60
2022-07-25T02:37:53.176Z,2.50
2022-07-25T02:38:06.242Z,2.50
2022-07-25T02:38:22.005Z,2.40
2022-07-25T02:38:35.344Z,2.40
2022-07-25T02:38:48.401Z,2.42
2022-07-25T02:39:01.283Z,2.40
2022-07-25T02:39:14.129Z,2.55
2022-07-25T02:39:26.986Z,2.80
2022-07-25T02:39:40.456Z,2.80
2022-07-25T02:39:53.522Z,2.60
2022-07-25T02:40:07.107Z,2.60
2022-07-25T02:40:20.136Z,2.70
2022-07-25T02:40:33.147Z,2.75
2022-07-25T02:40:47.511Z,2.75
2022-07-25T02:41:00.527Z,2.62
2022-07-25T02:41:13.549Z,2.60
2022-07-25T02:41:26.769Z,2.42
2022-07-25T02:41:43.820Z,2.55
2022-07-25T02:42:00.894Z,2.67
2022-07-25T02:42:13.757Z,2.53
2022-07-25T02:42:26.787Z,2.60
2022-07-25T02:42:39.642Z,2.67
2022-07-25T02:42:52.685Z,2.70
2022-07-25T02:43:05.641Z,2.78
2022-07-25T02:43:18.867Z,2.53
2022-07-25T02:43:32.637Z,2.40
2022-07-25T02:43:45.604Z,2.60
2022-07-25T02:43:58.994Z,2.50
2022-07-25T02:44:13.487Z,2.30
2022-07-25T02:44:26.691Z,2.33
2022-07-25T02:44:39.654Z,2.40
2022-07-25T02:44:56.475Z,2.58
2022-07-25T02:45:09.755Z,2.60
2022-07-25T02:45:23.092Z,2.50
2022-07-25T02:45:36.088Z,2.50
2022-07-25T02:45:49.104Z,2.50
2022-07-25T02:46:21.926Z,2.65
2022-07-25T02:46:35.341Z,2.47
2022-07-25T02:46:48.509Z,2.40
2022-07-25T02:47:01.423Z,2.50
2022-07-25T02:47:19.152Z,2.70
2022-07-25T02:47:32.036Z,2.55
2022-07-25T02:47:44.955Z,2.30
2022-07-25T02:48:16.905Z,2.40
2022-07-25T02:48:29.967Z,2.40
2022-07-25T02:48:42.863Z,2.65
2022-07-25T02:48:55.862Z,2.60
2022-07-25T02:49:08.921Z,2.35
2022-07-25T02:49:21.948Z,2.33
2022-07-25T02:49:34.923Z,2.40
2022-07-25T02:49:47.820Z,2.60
2022-07-25T02:50:01.110Z,2.67
2022-07-25T02:50:14.513Z,2.75
2022-07-25T02:50:27.852Z,2.70
2022-07-25T02:50:42.639Z,2.60
2022-07-25T02:50:55.478Z,2.60
2022-07-25T02:51:08.529Z,2.45
2022-07-25T02:51:21.625Z,2.37
2022-07-25T02:51:34.638Z,2.37
2022-07-25T02:51:47.513Z,2.58
2022-07-25T02:52:00.592Z,2.70
2022-07-25T02:52:13.829Z,2.53
2022-07-25T02:52:27.034Z,2.45
2022-07-25T02:52:40.151Z,2.40
2022-07-25T02:52:54.922Z,2.30
2022-07-25T02:53:08.062Z,2.37
2022-07-25T02:53:39.965Z,2.33
2022-07-25T02:53:57.103Z,2.55
2022-07-25T02:54:11.615Z,2.50
2022-07-25T02:54:25.777Z,2.60
2022-07-25T02:54:39.616Z,2.70
2022-07-25T02:54:52.518Z,2.67
2022-07-25T02:55:09.572Z,2.55
2022-07-25T02:55:22.791Z,2.60
2022-07-25T02:55:35.662Z,2.80
2022-07-25T02:55:48.769Z,2.83
2022-07-25T02:56:01.705Z,2.62
2022-07-25T02:56:14.584Z,2.42
2022-07-25T02:56:29.855Z,2.30
2022-07-25T02:56:43.455Z,2.30
2022-07-25T02:56:56.340Z,2.40
2022-07-25T02:57:09.202Z,2.50
2022-07-25T02:57:22.085Z,2.62
2022-07-25T02:57:34.995Z,2.47
2022-07-25T02:57:47.881Z,2.50
2022-07-25T02:58:00.766Z,2.70
2022-07-25T02:58:15.035Z,2.85
2022-07-25T02:58:27.853Z,2.90
2022-07-25T02:58:40.974Z,2.70
2022-07-25T02:58:54.629Z,2.42
2022-07-25T02:59:07.665Z,2.30
2022-07-25T02:59:20.537Z,2.42
2022-07-25T02:59:33.475Z,2.60
2022-07-25T02:59:46.730Z,2.60
2022-07-25T02:59:59.723Z,2.65
2022-07-25T03:00:13.376Z,2.55
2022-07-25T03:00:26.457Z,2.55
2022-07-25T03:00:39.410Z,2.70
2022-07-25T03:00:52.533Z,2.75
2022-07-25T03:01:05.657Z,2.70
2022-07-25T03:01:18.733Z,2.75
2022-07-25T03:01:32.931Z,2.67